sensor_id;sensor_type;location;lat;lon;timestamp;P1;durP1;ratioP1;P2;durP2;ratioP2
84476;SDS011;74700;43.228;0.108;2024-01-30T00:01:51;75.38;;;41.17;;
84476;SDS011;74700;43.228;0.108;2024-01-30T00:04:17;84.78;;;43.10;;
84476;SDS011;74700;43.228;0.108;2024-01-30T00:06:43;70.20;;;38.83;;
84476;SDS011;74700;43.228;0.108;2024-01-30T00:09:10;73.38;;;37.72;;
84476;SDS011;74700;43.228;0.108;2024-01-30T00:11:39;74.80;;;35.88;;
84476;SDS011;74700;43.228;0.108;2024-01-30T00:14:05;75.47;;;36.22;;
84476;SDS011;74700;43.228;0.108;2024-01-30T00:16:31;65.13;;;35.05;;
84476;SDS011;74700;43.228;0.108;2024-01-30T00:18:57;69.68;;;34.22;;
84476;SDS011;74700;43.228;0.108;2024-01-30T00:21:23;68.03;;;32.58;;
84476;SDS011;74700;43.228;0.108;2024-01-30T00:23:49;79.70;;;35.30;;
84476;SDS011;74700;43.228;0.108;2024-01-30T00:26:15;157.70;;;68.22;;
84476;SDS011;74700;43.228;0.108;2024-01-30T00:28:42;152.02;;;60.88;;
84476;SDS011;74700;43.228;0.108;2024-01-30T00:31:08;207.40;;;80.78;;
84476;SDS011;74700;43.228;0.108;2024-01-30T00:33:37;156.63;;;61.05;;
84476;SDS011;74700;43.228;0.108;2024-01-30T00:36:04;124.22;;;50.50;;
84476;SDS011;74700;43.228;0.108;2024-01-30T00:38:31;102.80;;;44.83;;
84476;SDS011;74700;43.228;0.108;2024-01-30T00:40:57;93.72;;;41.42;;
84476;SDS011;74700;43.228;0.108;2024-01-30T00:43:23;77.85;;;34.75;;
84476;SDS011;74700;43.228;0.108;2024-01-30T00:45:50;72.55;;;32.92;;
84476;SDS011;74700;43.228;0.108;2024-01-30T00:48:17;67.30;;;34.05;;
84476;SDS011;74700;43.228;0.108;2024-01-30T00:50:44;74.32;;;32.38;;
84476;SDS011;74700;43.228;0.108;2024-01-30T00:53:10;62.25;;;30.30;;
84476;SDS011;74700;43.228;0.108;2024-01-30T00:55:36;62.42;;;30.35;;
84476;SDS011;74700;43.228;0.108;2024-01-30T00:58:02;62.92;;;28.95;;
84476;SDS011;74700;43.228;0.108;2024-01-30T01:00:31;55.30;;;29.30;;
84476;SDS011;74700;43.228;0.108;2024-01-30T01:02:58;53.65;;;28.35;;
84476;SDS011;74700;43.228;0.108;2024-01-30T01:05:24;60.30;;;30.45;;
84476;SDS011;74700;43.228;0.108;2024-01-30T01:07:50;48.20;;;26.40;;
84476;SDS011;74700;43.228;0.108;2024-01-30T01:10:17;47.47;;;27.58;;
84476;SDS011;74700;43.228;0.108;2024-01-30T01:12:43;52.13;;;27.63;;
84476;SDS011;74700;43.228;0.108;2024-01-30T01:15:09;56.85;;;28.52;;
84476;SDS011;74700;43.228;0.108;2024-01-30T01:17:36;74.35;;;31.77;;
84476;SDS011;74700;43.228;0.108;2024-01-30T01:20:02;68.22;;;33.70;;
84476;SDS011;74700;43.228;0.108;2024-01-30T01:22:30;78.28;;;36.45;;
84476;SDS011;74700;43.228;0.108;2024-01-30T01:24:56;81.88;;;36.50;;
84476;SDS011;74700;43.228;0.108;2024-01-30T01:27:22;73.88;;;32.70;;
84476;SDS011;74700;43.228;0.108;2024-01-30T01:29:48;76.15;;;35.83;;
84476;SDS011;74700;43.228;0.108;2024-01-30T01:32:14;64.95;;;33.60;;
84476;SDS011;74700;43.228;0.108;2024-01-30T01:34:41;66.00;;;30.98;;
84476;SDS011;74700;43.228;0.108;2024-01-30T01:37:07;65.95;;;31.15;;
84476;SDS011;74700;43.228;0.108;2024-01-30T01:39:33;50.85;;;23.73;;
84476;SDS011;74700;43.228;0.108;2024-01-30T01:41:59;54.95;;;26.35;;
84476;SDS011;74700;43.228;0.108;2024-01-30T01:44:25;56.28;;;28.17;;
84476;SDS011;74700;43.228;0.108;2024-01-30T01:46:51;57.08;;;27.13;;
84476;SDS011;74700;43.228;0.108;2024-01-30T01:49:17;51.85;;;27.88;;
84476;SDS011;74700;43.228;0.108;2024-01-30T01:51:44;62.15;;;27.63;;
84476;SDS011;74700;43.228;0.108;2024-01-30T01:54:11;57.10;;;28.00;;
84476;SDS011;74700;43.228;0.108;2024-01-30T01:56:37;53.13;;;27.42;;
84476;SDS011;74700;43.228;0.108;2024-01-30T01:59:07;53.80;;;24.20;;
84476;SDS011;74700;43.228;0.108;2024-01-30T02:01:33;50.65;;;22.27;;
84476;SDS011;74700;43.228;0.108;2024-01-30T02:04:00;47.38;;;23.88;;
84476;SDS011;74700;43.228;0.108;2024-01-30T02:06:26;41.22;;;22.80;;
84476;SDS011;74700;43.228;0.108;2024-01-30T02:08:53;45.33;;;22.42;;
84476;SDS011;74700;43.228;0.108;2024-01-30T02:11:19;40.33;;;21.90;;
84476;SDS011;74700;43.228;0.108;2024-01-30T02:13:46;38.40;;;22.50;;
84476;SDS011;74700;43.228;0.108;2024-01-30T02:16:12;32.95;;;20.48;;
84476;SDS011;74700;43.228;0.108;2024-01-30T02:18:38;37.92;;;22.05;;
84476;SDS011;74700;43.228;0.108;2024-01-30T02:21:08;32.17;;;19.60;;
84476;SDS011;74700;43.228;0.108;2024-01-30T02:23:34;46.53;;;22.05;;
84476;SDS011;74700;43.228;0.108;2024-01-30T02:26:00;44.47;;;19.40;;
84476;SDS011;74700;43.228;0.108;2024-01-30T02:28:26;30.15;;;17.65;;
84476;SDS011;74700;43.228;0.108;2024-01-30T02:30:52;29.20;;;17.58;;
84476;SDS011;74700;43.228;0.108;2024-01-30T02:33:18;40.70;;;18.23;;
84476;SDS011;74700;43.228;0.108;2024-01-30T02:35:46;30.52;;;17.92;;
84476;SDS011;74700;43.228;0.108;2024-01-30T02:38:13;32.20;;;18.27;;
84476;SDS011;74700;43.228;0.108;2024-01-30T02:40:39;31.88;;;17.55;;
84476;SDS011;74700;43.228;0.108;2024-01-30T02:43:05;36.55;;;18.70;;
84476;SDS011;74700;43.228;0.108;2024-01-30T02:45:31;35.53;;;17.73;;
84476;SDS011;74700;43.228;0.108;2024-01-30T02:47:57;34.20;;;18.58;;
84476;SDS011;74700;43.228;0.108;2024-01-30T02:50:23;42.22;;;19.17;;
84476;SDS011;74700;43.228;0.108;2024-01-30T02:52:49;39.63;;;18.27;;
84476;SDS011;74700;43.228;0.108;2024-01-30T02:55:15;33.05;;;17.48;;
84476;SDS011;74700;43.228;0.108;2024-01-30T02:57:44;37.60;;;17.95;;
84476;SDS011;74700;43.228;0.108;2024-01-30T03:00:11;32.80;;;17.02;;
84476;SDS011;74700;43.228;0.108;2024-01-30T03:02:37;43.17;;;19.75;;
84476;SDS011;74700;43.228;0.108;2024-01-30T03:05:03;45.13;;;20.05;;
84476;SDS011;74700;43.228;0.108;2024-01-30T03:07:29;41.20;;;19.77;;
84476;SDS011;74700;43.228;0.108;2024-01-30T03:09:55;45.75;;;19.85;;
84476;SDS011;74700;43.228;0.108;2024-01-30T03:12:21;49.50;;;20.60;;
84476;SDS011;74700;43.228;0.108;2024-01-30T03:14:48;36.92;;;17.08;;
84476;SDS011;74700;43.228;0.108;2024-01-30T03:17:14;38.95;;;17.15;;
84476;SDS011;74700;43.228;0.108;2024-01-30T03:19:40;34.92;;;17.08;;
84476;SDS011;74700;43.228;0.108;2024-01-30T03:22:06;29.17;;;15.90;;
84476;SDS011;74700;43.228;0.108;2024-01-30T03:24:33;28.48;;;15.70;;
84476;SDS011;74700;43.228;0.108;2024-01-30T03:26:59;27.63;;;14.00;;
84476;SDS011;74700;43.228;0.108;2024-01-30T03:29:25;26.23;;;14.30;;
84476;SDS011;74700;43.228;0.108;2024-01-30T03:31:51;24.60;;;14.32;;
84476;SDS011;74700;43.228;0.108;2024-01-30T03:34:17;33.47;;;14.35;;
84476;SDS011;74700;43.228;0.108;2024-01-30T03:36:43;21.13;;;13.52;;
84476;SDS011;74700;43.228;0.108;2024-01-30T03:39:09;28.20;;;13.70;;
84476;SDS011;74700;43.228;0.108;2024-01-30T03:41:35;23.60;;;13.65;;
84476;SDS011;74700;43.228;0.108;2024-01-30T03:44:01;25.80;;;14.05;;
84476;SDS011;74700;43.228;0.108;2024-01-30T03:46:27;24.05;;;13.27;;
84476;SDS011;74700;43.228;0.108;2024-01-30T03:48:53;24.05;;;14.05;;
84476;SDS011;74700;43.228;0.108;2024-01-30T03:51:19;19.77;;;13.02;;
84476;SDS011;74700;43.228;0.108;2024-01-30T03:53:45;25.25;;;14.68;;
84476;SDS011;74700;43.228;0.108;2024-01-30T03:56:11;28.98;;;14.20;;
84476;SDS011;74700;43.228;0.108;2024-01-30T03:58:40;20.77;;;13.05;;
84476;SDS011;74700;43.228;0.108;2024-01-30T04:01:07;20.92;;;12.60;;
84476;SDS011;74700;43.228;0.108;2024-01-30T04:03:33;31.33;;;15.10;;
84476;SDS011;74700;43.228;0.108;2024-01-30T04:05:59;22.15;;;13.85;;
84476;SDS011;74700;43.228;0.108;2024-01-30T04:08:25;28.35;;;12.40;;
84476;SDS011;74700;43.228;0.108;2024-01-30T04:10:51;17.67;;;11.15;;
84476;SDS011;74700;43.228;0.108;2024-01-30T04:13:17;22.00;;;10.90;;
84476;SDS011;74700;43.228;0.108;2024-01-30T04:15:43;18.42;;;10.10;;
84476;SDS011;74700;43.228;0.108;2024-01-30T04:18:09;13.90;;;8.43;;
84476;SDS011;74700;43.228;0.108;2024-01-30T04:20:35;16.25;;;7.93;;
84476;SDS011;74700;43.228;0.108;2024-01-30T04:23:01;13.40;;;7.93;;
84476;SDS011;74700;43.228;0.108;2024-01-30T04:25:27;13.50;;;7.28;;
84476;SDS011;74700;43.228;0.108;2024-01-30T04:27:53;18.67;;;7.88;;
84476;SDS011;74700;43.228;0.108;2024-01-30T04:30:20;10.60;;;7.22;;
84476;SDS011;74700;43.228;0.108;2024-01-30T04:32:46;15.10;;;9.30;;
84476;SDS011;74700;43.228;0.108;2024-01-30T04:35:12;15.48;;;9.48;;
84476;SDS011;74700;43.228;0.108;2024-01-30T04:37:38;19.05;;;9.77;;
84476;SDS011;74700;43.228;0.108;2024-01-30T04:40:04;12.95;;;9.18;;
84476;SDS011;74700;43.228;0.108;2024-01-30T04:42:30;15.23;;;9.82;;
84476;SDS011;74700;43.228;0.108;2024-01-30T04:44:56;16.23;;;9.35;;
84476;SDS011;74700;43.228;0.108;2024-01-30T04:47:22;18.15;;;8.65;;
84476;SDS011;74700;43.228;0.108;2024-01-30T04:49:48;13.95;;;8.30;;
84476;SDS011;74700;43.228;0.108;2024-01-30T04:52:15;13.05;;;8.45;;
84476;SDS011;74700;43.228;0.108;2024-01-30T04:54:41;13.30;;;7.72;;
84476;SDS011;74700;43.228;0.108;2024-01-30T04:57:07;13.95;;;7.72;;
84476;SDS011;74700;43.228;0.108;2024-01-30T04:59:36;9.32;;;6.97;;
84476;SDS011;74700;43.228;0.108;2024-01-30T05:02:02;14.05;;;6.32;;
84476;SDS011;74700;43.228;0.108;2024-01-30T05:04:28;12.15;;;6.68;;
84476;SDS011;74700;43.228;0.108;2024-01-30T05:06:54;13.60;;;6.78;;
84476;SDS011;74700;43.228;0.108;2024-01-30T05:09:20;9.90;;;5.93;;
84476;SDS011;74700;43.228;0.108;2024-01-30T05:11:47;16.17;;;6.68;;
84476;SDS011;74700;43.228;0.108;2024-01-30T05:14:13;10.52;;;6.63;;
84476;SDS011;74700;43.228;0.108;2024-01-30T05:16:40;14.55;;;7.65;;
84476;SDS011;74700;43.228;0.108;2024-01-30T05:19:07;15.23;;;8.40;;
84476;SDS011;74700;43.228;0.108;2024-01-30T05:21:34;13.18;;;8.10;;
84476;SDS011;74700;43.228;0.108;2024-01-30T05:24:00;14.50;;;8.85;;
84476;SDS011;74700;43.228;0.108;2024-01-30T05:26:26;25.35;;;12.00;;
84476;SDS011;74700;43.228;0.108;2024-01-30T05:28:52;20.45;;;10.75;;
84476;SDS011;74700;43.228;0.108;2024-01-30T05:31:18;17.48;;;10.77;;
84476;SDS011;74700;43.228;0.108;2024-01-30T05:33:44;44.15;;;23.17;;
84476;SDS011;74700;43.228;0.108;2024-01-30T05:36:11;40.00;;;21.90;;
84476;SDS011;74700;43.228;0.108;2024-01-30T05:38:41;42.72;;;24.13;;
84476;SDS011;74700;43.228;0.108;2024-01-30T05:41:07;35.80;;;19.45;;
84476;SDS011;74700;43.228;0.108;2024-01-30T05:43:34;32.55;;;16.27;;
84476;SDS011;74700;43.228;0.108;2024-01-30T05:46:00;29.90;;;12.68;;
84476;SDS011;74700;43.228;0.108;2024-01-30T05:48:26;24.48;;;12.23;;
84476;SDS011;74700;43.228;0.108;2024-01-30T05:50:52;24.40;;;14.07;;
84476;SDS011;74700;43.228;0.108;2024-01-30T05:53:18;28.50;;;16.40;;
84476;SDS011;74700;43.228;0.108;2024-01-30T05:55:44;19.75;;;12.45;;
84476;SDS011;74700;43.228;0.108;2024-01-30T05:58:10;16.73;;;10.23;;
84476;SDS011;74700;43.228;0.108;2024-01-30T06:00:36;16.17;;;10.30;;
84476;SDS011;74700;43.228;0.108;2024-01-30T06:03:03;19.65;;;11.50;;
84476;SDS011;74700;43.228;0.108;2024-01-30T06:05:29;19.63;;;10.40;;
84476;SDS011;74700;43.228;0.108;2024-01-30T06:07:55;16.52;;;9.60;;
84476;SDS011;74700;43.228;0.108;2024-01-30T06:10:21;17.58;;;9.63;;
84476;SDS011;74700;43.228;0.108;2024-01-30T06:12:47;14.32;;;8.82;;
84476;SDS011;74700;43.228;0.108;2024-01-30T06:15:13;12.88;;;9.07;;
84476;SDS011;74700;43.228;0.108;2024-01-30T06:17:39;14.10;;;8.90;;
84476;SDS011;74700;43.228;0.108;2024-01-30T06:20:06;19.40;;;11.27;;
84476;SDS011;74700;43.228;0.108;2024-01-30T06:22:32;17.23;;;12.00;;
84476;SDS011;74700;43.228;0.108;2024-01-30T06:24:58;19.25;;;9.75;;
84476;SDS011;74700;43.228;0.108;2024-01-30T06:27:24;15.60;;;8.43;;
84476;SDS011;74700;43.228;0.108;2024-01-30T06:29:50;13.80;;;8.43;;
84476;SDS011;74700;43.228;0.108;2024-01-30T06:32:16;11.57;;;7.55;;
84476;SDS011;74700;43.228;0.108;2024-01-30T06:34:42;11.35;;;7.47;;
84476;SDS011;74700;43.228;0.108;2024-01-30T06:37:09;17.20;;;8.60;;
84476;SDS011;74700;43.228;0.108;2024-01-30T06:39:35;17.98;;;11.38;;
84476;SDS011;74700;43.228;0.108;2024-01-30T06:42:01;16.50;;;10.32;;
84476;SDS011;74700;43.228;0.108;2024-01-30T06:44:27;14.13;;;10.45;;
84476;SDS011;74700;43.228;0.108;2024-01-30T06:46:53;20.58;;;10.63;;
84476;SDS011;74700;43.228;0.108;2024-01-30T06:49:19;22.98;;;10.82;;
84476;SDS011;74700;43.228;0.108;2024-01-30T06:51:47;20.98;;;10.35;;
84476;SDS011;74700;43.228;0.108;2024-01-30T06:54:13;15.55;;;10.63;;
84476;SDS011;74700;43.228;0.108;2024-01-30T06:56:39;26.60;;;13.25;;
84476;SDS011;74700;43.228;0.108;2024-01-30T06:59:05;22.08;;;13.73;;
84476;SDS011;74700;43.228;0.108;2024-01-30T07:01:31;24.10;;;13.90;;
84476;SDS011;74700;43.228;0.108;2024-01-30T07:03:57;27.30;;;17.80;;
84476;SDS011;74700;43.228;0.108;2024-01-30T07:06:23;28.77;;;15.75;;
84476;SDS011;74700;43.228;0.108;2024-01-30T07:08:49;29.70;;;15.20;;
84476;SDS011;74700;43.228;0.108;2024-01-30T07:11:19;29.65;;;16.52;;
84476;SDS011;74700;43.228;0.108;2024-01-30T07:13:47;29.17;;;14.48;;
84476;SDS011;74700;43.228;0.108;2024-01-30T07:16:13;28.60;;;15.52;;
84476;SDS011;74700;43.228;0.108;2024-01-30T07:18:39;27.08;;;14.98;;
84476;SDS011;74700;43.228;0.108;2024-01-30T07:21:06;26.55;;;13.93;;
84476;SDS011;74700;43.228;0.108;2024-01-30T07:23:32;27.88;;;12.90;;
84476;SDS011;74700;43.228;0.108;2024-01-30T07:25:59;20.58;;;13.88;;
84476;SDS011;74700;43.228;0.108;2024-01-30T07:28:25;24.17;;;13.13;;
84476;SDS011;74700;43.228;0.108;2024-01-30T07:30:51;26.73;;;14.38;;
84476;SDS011;74700;43.228;0.108;2024-01-30T07:33:17;44.53;;;17.58;;
84476;SDS011;74700;43.228;0.108;2024-01-30T07:35:44;31.42;;;14.70;;
84476;SDS011;74700;43.228;0.108;2024-01-30T07:38:11;31.95;;;15.35;;
84476;SDS011;74700;43.228;0.108;2024-01-30T07:40:37;32.55;;;16.48;;
84476;SDS011;74700;43.228;0.108;2024-01-30T07:43:03;29.45;;;15.35;;
84476;SDS011;74700;43.228;0.108;2024-01-30T07:45:29;33.65;;;19.58;;
84476;SDS011;74700;43.228;0.108;2024-01-30T07:47:58;38.95;;;16.38;;
84476;SDS011;74700;43.228;0.108;2024-01-30T07:50:27;28.95;;;16.17;;
84476;SDS011;74700;43.228;0.108;2024-01-30T07:52:53;28.67;;;15.68;;
84476;SDS011;74700;43.228;0.108;2024-01-30T07:55:23;36.60;;;18.25;;
84476;SDS011;74700;43.228;0.108;2024-01-30T07:57:52;29.98;;;17.73;;
84476;SDS011;74700;43.228;0.108;2024-01-30T08:00:19;26.58;;;17.63;;
84476;SDS011;74700;43.228;0.108;2024-01-30T08:02:45;26.05;;;16.85;;
84476;SDS011;74700;43.228;0.108;2024-01-30T08:05:11;28.30;;;14.90;;
84476;SDS011;74700;43.228;0.108;2024-01-30T08:07:39;29.75;;;13.88;;
84476;SDS011;74700;43.228;0.108;2024-01-30T08:10:05;20.05;;;14.20;;
84476;SDS011;74700;43.228;0.108;2024-01-30T08:12:31;26.13;;;11.52;;
84476;SDS011;74700;43.228;0.108;2024-01-30T08:14:57;17.13;;;11.10;;
84476;SDS011;74700;43.228;0.108;2024-01-30T08:17:23;23.85;;;10.75;;
84476;SDS011;74700;43.228;0.108;2024-01-30T08:19:49;18.88;;;11.02;;
84476;SDS011;74700;43.228;0.108;2024-01-30T08:22:15;17.20;;;9.55;;
84476;SDS011;74700;43.228;0.108;2024-01-30T08:24:41;16.20;;;9.18;;
84476;SDS011;74700;43.228;0.108;2024-01-30T08:27:07;24.27;;;11.70;;
84476;SDS011;74700;43.228;0.108;2024-01-30T08:29:37;22.08;;;12.27;;
84476;SDS011;74700;43.228;0.108;2024-01-30T08:32:04;29.73;;;14.43;;
84476;SDS011;74700;43.228;0.108;2024-01-30T08:34:30;26.30;;;14.52;;
84476;SDS011;74700;43.228;0.108;2024-01-30T08:36:56;39.05;;;18.10;;
84476;SDS011;74700;43.228;0.108;2024-01-30T08:39:22;27.33;;;17.20;;
84476;SDS011;74700;43.228;0.108;2024-01-30T08:41:48;28.83;;;13.07;;
84476;SDS011;74700;43.228;0.108;2024-01-30T08:44:14;27.52;;;10.32;;
84476;SDS011;74700;43.228;0.108;2024-01-30T08:46:40;31.30;;;10.52;;
84476;SDS011;74700;43.228;0.108;2024-01-30T08:49:07;20.48;;;9.32;;
84476;SDS011;74700;43.228;0.108;2024-01-30T08:51:33;24.73;;;10.73;;
84476;SDS011;74700;43.228;0.108;2024-01-30T08:53:59;22.80;;;11.25;;
84476;SDS011;74700;43.228;0.108;2024-01-30T08:56:25;17.17;;;9.43;;
84476;SDS011;74700;43.228;0.108;2024-01-30T08:58:51;14.98;;;8.32;;
84476;SDS011;74700;43.228;0.108;2024-01-30T09:01:17;19.55;;;10.32;;
84476;SDS011;74700;43.228;0.108;2024-01-30T09:03:43;20.50;;;10.38;;
84476;SDS011;74700;43.228;0.108;2024-01-30T09:06:11;18.00;;;9.52;;
84476;SDS011;74700;43.228;0.108;2024-01-30T09:08:38;19.67;;;9.40;;
84476;SDS011;74700;43.228;0.108;2024-01-30T09:11:13;14.45;;;8.60;;
84476;SDS011;74700;43.228;0.108;2024-01-30T09:13:39;15.88;;;7.90;;
84476;SDS011;74700;43.228;0.108;2024-01-30T09:16:05;13.82;;;7.93;;
84476;SDS011;74700;43.228;0.108;2024-01-30T09:18:32;15.90;;;9.05;;
84476;SDS011;74700;43.228;0.108;2024-01-30T09:20:58;20.83;;;10.48;;
84476;SDS011;74700;43.228;0.108;2024-01-30T09:23:24;20.35;;;13.60;;
84476;SDS011;74700;43.228;0.108;2024-01-30T09:25:50;22.60;;;13.10;;
84476;SDS011;74700;43.228;0.108;2024-01-30T09:28:17;21.50;;;11.77;;
84476;SDS011;74700;43.228;0.108;2024-01-30T09:30:43;23.95;;;11.35;;
84476;SDS011;74700;43.228;0.108;2024-01-30T09:33:09;19.80;;;11.57;;
84476;SDS011;74700;43.228;0.108;2024-01-30T09:35:35;14.65;;;9.95;;
84476;SDS011;74700;43.228;0.108;2024-01-30T09:38:02;17.33;;;10.57;;
84476;SDS011;74700;43.228;0.108;2024-01-30T09:40:28;16.05;;;10.13;;
84476;SDS011;74700;43.228;0.108;2024-01-30T09:42:54;14.80;;;9.55;;
84476;SDS011;74700;43.228;0.108;2024-01-30T09:45:23;14.75;;;9.02;;
84476;SDS011;74700;43.228;0.108;2024-01-30T09:47:50;20.45;;;8.57;;
84476;SDS011;74700;43.228;0.108;2024-01-30T09:50:16;19.50;;;8.90;;
84476;SDS011;74700;43.228;0.108;2024-01-30T09:52:44;19.52;;;8.45;;
84476;SDS011;74700;43.228;0.108;2024-01-30T09:55:10;38.15;;;8.27;;
84476;SDS011;74700;43.228;0.108;2024-01-30T09:57:36;13.30;;;8.00;;
84476;SDS011;74700;43.228;0.108;2024-01-30T10:00:03;15.07;;;7.47;;
84476;SDS011;74700;43.228;0.108;2024-01-30T10:02:30;32.10;;;8.13;;
84476;SDS011;74700;43.228;0.108;2024-01-30T10:04:57;17.23;;;7.72;;
84476;SDS011;74700;43.228;0.108;2024-01-30T10:07:23;16.23;;;8.10;;
84476;SDS011;74700;43.228;0.108;2024-01-30T10:09:49;17.95;;;7.65;;
84476;SDS011;74700;43.228;0.108;2024-01-30T10:12:15;16.05;;;7.25;;
84476;SDS011;74700;43.228;0.108;2024-01-30T10:14:42;12.60;;;7.05;;
84476;SDS011;74700;43.228;0.108;2024-01-30T10:17:08;14.32;;;7.05;;
84476;SDS011;74700;43.228;0.108;2024-01-30T10:19:37;12.55;;;6.55;;
84476;SDS011;74700;43.228;0.108;2024-01-30T10:22:03;18.70;;;6.88;;
84476;SDS011;74700;43.228;0.108;2024-01-30T10:24:31;15.60;;;7.05;;
84476;SDS011;74700;43.228;0.108;2024-01-30T10:26:57;16.40;;;6.43;;
84476;SDS011;74700;43.228;0.108;2024-01-30T10:29:23;15.05;;;7.38;;
84476;SDS011;74700;43.228;0.108;2024-01-30T10:32:02;20.38;;;6.32;;
84476;SDS011;74700;43.228;0.108;2024-01-30T10:34:28;11.70;;;7.10;;
84476;SDS011;74700;43.228;0.108;2024-01-30T10:37:16;20.90;;;7.53;;
84476;SDS011;74700;43.228;0.108;2024-01-30T10:39:42;11.63;;;7.60;;
84476;SDS011;74700;43.228;0.108;2024-01-30T10:42:17;21.83;;;6.78;;
84476;SDS011;74700;43.228;0.108;2024-01-30T10:47:24;21.45;;;6.38;;
84476;SDS011;74700;43.228;0.108;2024-01-30T10:49:51;22.77;;;7.43;;
84476;SDS011;74700;43.228;0.108;2024-01-30T10:52:18;25.90;;;9.93;;
84476;SDS011;74700;43.228;0.108;2024-01-30T10:54:44;21.13;;;10.00;;
84476;SDS011;74700;43.228;0.108;2024-01-30T10:57:11;25.58;;;10.30;;
84476;SDS011;74700;43.228;0.108;2024-01-30T10:59:38;22.33;;;9.80;;
84476;SDS011;74700;43.228;0.108;2024-01-30T11:02:04;21.23;;;9.07;;
84476;SDS011;74700;43.228;0.108;2024-01-30T11:04:37;19.45;;;6.88;;
84476;SDS011;74700;43.228;0.108;2024-01-30T11:07:16;14.97;;;5.87;;
84476;SDS011;74700;43.228;0.108;2024-01-30T11:09:49;31.00;;;5.85;;
84476;SDS011;74700;43.228;0.108;2024-01-30T11:12:16;12.13;;;4.68;;
84476;SDS011;74700;43.228;0.108;2024-01-30T11:14:42;17.90;;;6.10;;
84476;SDS011;74700;43.228;0.108;2024-01-30T11:17:09;18.98;;;6.20;;
84476;SDS011;74700;43.228;0.108;2024-01-30T11:19:37;17.20;;;6.60;;
84476;SDS011;74700;43.228;0.108;2024-01-30T11:22:06;13.05;;;5.95;;
84476;SDS011;74700;43.228;0.108;2024-01-30T11:24:36;13.63;;;4.38;;
84476;SDS011;74700;43.228;0.108;2024-01-30T11:27:07;20.08;;;5.53;;
84476;SDS011;74700;43.228;0.108;2024-01-30T11:29:34;15.38;;;5.35;;
84476;SDS011;74700;43.228;0.108;2024-01-30T11:32:00;21.70;;;5.15;;
84476;SDS011;74700;43.228;0.108;2024-01-30T11:34:27;14.55;;;4.32;;
84476;SDS011;74700;43.228;0.108;2024-01-30T11:36:57;14.10;;;4.45;;
84476;SDS011;74700;43.228;0.108;2024-01-30T11:39:26;11.13;;;5.22;;
84476;SDS011;74700;43.228;0.108;2024-01-30T11:41:53;11.05;;;4.90;;
84476;SDS011;74700;43.228;0.108;2024-01-30T11:44:22;12.93;;;5.18;;
84476;SDS011;74700;43.228;0.108;2024-01-30T11:46:49;16.25;;;5.70;;
84476;SDS011;74700;43.228;0.108;2024-01-30T11:49:15;18.05;;;5.38;;
84476;SDS011;74700;43.228;0.108;2024-01-30T11:51:47;14.30;;;5.32;;
84476;SDS011;74700;43.228;0.108;2024-01-30T11:54:14;17.80;;;6.47;;
84476;SDS011;74700;43.228;0.108;2024-01-30T11:56:41;19.73;;;5.15;;
84476;SDS011;74700;43.228;0.108;2024-01-30T11:59:08;14.55;;;5.22;;
84476;SDS011;74700;43.228;0.108;2024-01-30T12:01:34;20.15;;;5.63;;
84476;SDS011;74700;43.228;0.108;2024-01-30T12:04:00;20.05;;;5.18;;
84476;SDS011;74700;43.228;0.108;2024-01-30T12:06:26;10.25;;;5.35;;
84476;SDS011;74700;43.228;0.108;2024-01-30T12:08:59;12.45;;;4.78;;
84476;SDS011;74700;43.228;0.108;2024-01-30T12:11:28;13.70;;;4.78;;
84476;SDS011;74700;43.228;0.108;2024-01-30T12:13:55;15.88;;;4.80;;
84476;SDS011;74700;43.228;0.108;2024-01-30T12:16:21;7.60;;;4.43;;
84476;SDS011;74700;43.228;0.108;2024-01-30T12:18:48;14.15;;;4.90;;
84476;SDS011;74700;43.228;0.108;2024-01-30T12:21:16;9.73;;;4.18;;
84476;SDS011;74700;43.228;0.108;2024-01-30T12:23:43;11.40;;;5.30;;
84476;SDS011;74700;43.228;0.108;2024-01-30T12:26:09;12.63;;;4.40;;
84476;SDS011;74700;43.228;0.108;2024-01-30T12:28:35;16.30;;;4.68;;
84476;SDS011;74700;43.228;0.108;2024-01-30T12:31:02;20.02;;;5.35;;
84476;SDS011;74700;43.228;0.108;2024-01-30T12:33:28;13.32;;;4.60;;
84476;SDS011;74700;43.228;0.108;2024-01-30T12:35:55;17.48;;;4.55;;
84476;SDS011;74700;43.228;0.108;2024-01-30T12:38:22;14.15;;;4.63;;
84476;SDS011;74700;43.228;0.108;2024-01-30T12:40:49;11.52;;;4.82;;
84476;SDS011;74700;43.228;0.108;2024-01-30T12:43:15;21.63;;;5.57;;
84476;SDS011;74700;43.228;0.108;2024-01-30T12:45:41;13.48;;;4.43;;
84476;SDS011;74700;43.228;0.108;2024-01-30T12:48:08;12.02;;;4.63;;
84476;SDS011;74700;43.228;0.108;2024-01-30T12:50:34;10.45;;;4.40;;
84476;SDS011;74700;43.228;0.108;2024-01-30T12:53:00;17.88;;;5.38;;
84476;SDS011;74700;43.228;0.108;2024-01-30T12:55:26;16.40;;;4.50;;
84476;SDS011;74700;43.228;0.108;2024-01-30T12:57:53;16.00;;;4.97;;
84476;SDS011;74700;43.228;0.108;2024-01-30T13:00:20;16.88;;;4.80;;
84476;SDS011;74700;43.228;0.108;2024-01-30T13:02:47;14.70;;;4.63;;
84476;SDS011;74700;43.228;0.108;2024-01-30T13:05:13;17.05;;;4.32;;
84476;SDS011;74700;43.228;0.108;2024-01-30T13:07:39;16.55;;;5.03;;
84476;SDS011;74700;43.228;0.108;2024-01-30T13:10:05;16.33;;;5.28;;
84476;SDS011;74700;43.228;0.108;2024-01-30T13:12:31;18.33;;;5.38;;
84476;SDS011;74700;43.228;0.108;2024-01-30T13:14:58;8.98;;;5.03;;
84476;SDS011;74700;43.228;0.108;2024-01-30T13:17:26;15.40;;;5.57;;
84476;SDS011;74700;43.228;0.108;2024-01-30T13:19:52;26.98;;;5.97;;
84476;SDS011;74700;43.228;0.108;2024-01-30T13:22:19;12.30;;;5.65;;
84476;SDS011;74700;43.228;0.108;2024-01-30T13:24:48;21.45;;;5.20;;
84476;SDS011;74700;43.228;0.108;2024-01-30T13:27:14;17.20;;;5.15;;
84476;SDS011;74700;43.228;0.108;2024-01-30T13:29:40;11.25;;;5.35;;
84476;SDS011;74700;43.228;0.108;2024-01-30T13:32:06;14.95;;;5.38;;
84476;SDS011;74700;43.228;0.108;2024-01-30T13:34:32;16.42;;;5.10;;
84476;SDS011;74700;43.228;0.108;2024-01-30T13:36:58;14.05;;;5.25;;
84476;SDS011;74700;43.228;0.108;2024-01-30T13:39:24;12.38;;;4.97;;
84476;SDS011;74700;43.228;0.108;2024-01-30T13:41:50;12.77;;;4.43;;
84476;SDS011;74700;43.228;0.108;2024-01-30T13:44:17;10.48;;;4.75;;
84476;SDS011;74700;43.228;0.108;2024-01-30T13:46:43;17.88;;;4.63;;
84476;SDS011;74700;43.228;0.108;2024-01-30T13:49:10;11.07;;;4.18;;
84476;SDS011;74700;43.228;0.108;2024-01-30T13:51:36;14.80;;;4.47;;
84476;SDS011;74700;43.228;0.108;2024-01-30T13:54:02;15.75;;;4.20;;
84476;SDS011;74700;43.228;0.108;2024-01-30T13:56:28;12.75;;;4.50;;
84476;SDS011;74700;43.228;0.108;2024-01-30T13:58:55;17.15;;;4.45;;
84476;SDS011;74700;43.228;0.108;2024-01-30T14:01:21;9.77;;;3.88;;
84476;SDS011;74700;43.228;0.108;2024-01-30T14:03:48;17.13;;;4.65;;
84476;SDS011;74700;43.228;0.108;2024-01-30T14:06:14;13.70;;;4.40;;
84476;SDS011;74700;43.228;0.108;2024-01-30T14:08:40;12.23;;;4.78;;
84476;SDS011;74700;43.228;0.108;2024-01-30T14:11:06;9.98;;;3.95;;
84476;SDS011;74700;43.228;0.108;2024-01-30T14:13:32;12.30;;;4.80;;
84476;SDS011;74700;43.228;0.108;2024-01-30T14:15:58;10.23;;;4.25;;
84476;SDS011;74700;43.228;0.108;2024-01-30T14:18:24;9.35;;;4.55;;
84476;SDS011;74700;43.228;0.108;2024-01-30T14:20:53;11.90;;;4.20;;
84476;SDS011;74700;43.228;0.108;2024-01-30T14:23:19;9.48;;;3.92;;
84476;SDS011;74700;43.228;0.108;2024-01-30T14:25:46;12.45;;;4.35;;
84476;SDS011;74700;43.228;0.108;2024-01-30T14:28:12;9.05;;;4.40;;